CEB132 RPVM-RPVE
Flight info
| Callsign | CEB132 |
|---|---|
| Flight time | 0h 34m |
| Altitude | 24000 |
| Route | KEVAN1Q KEVAN TR2 BCD TR8 KLO KLO7A |
| Aircraft | A20N/M-SDE2E3FGHIRWXY/LB1 |
Departure
| Time | 2026-05-03 21:14 |
|---|---|
| Airport | Mactan Cebu International Airport (RPVM) |
Arrival
| Time | 2026-05-03 21:49 |
|---|---|
| Airport | Godofredo P. Ramos Airport (RPVE) |
| Time | Latitude | Longitude | Altitude | Speed | Heading |
|---|---|---|---|---|---|
| 2026-05-03 20:58 | 10.31550 | 123.97977 | 36 ft | 0 kts | 314° |
| 2026-05-03 21:02 | 10.31548 | 123.97979 | 36 ft | 2 kts | 314° |
| 2026-05-03 21:03 | 10.31537 | 123.97990 | 36 ft | 2 kts | 314° |
| 2026-05-03 21:03 | 10.31531 | 123.97997 | 36 ft | 1 kts | 314° |
| 2026-05-03 21:03 | 10.31521 | 123.98009 | 36 ft | 2 kts | 295° |
| 2026-05-03 21:03 | 10.31516 | 123.98023 | 36 ft | 2 kts | 280° |
| 2026-05-03 21:04 | 10.31516 | 123.98038 | 36 ft | 2 kts | 263° |
| 2026-05-03 21:04 | 10.31519 | 123.98053 | 36 ft | 2 kts | 246° |
| 2026-05-03 21:04 | 10.31527 | 123.98066 | 36 ft | 1 kts | 230° |
| 2026-05-03 21:04 | 10.31531 | 123.98071 | 36 ft | 1 kts | 224° |
| 2026-05-03 21:05 | 10.31533 | 123.98072 | 36 ft | 0 kts | 225° |
| 2026-05-03 21:06 | 10.31531 | 123.98070 | 36 ft | 1 kts | 225° |
| 2026-05-03 21:06 | 10.31521 | 123.98060 | 36 ft | 2 kts | 225° |
| 2026-05-03 21:07 | 10.31504 | 123.98042 | 36 ft | 4 kts | 226° |
| 2026-05-03 21:07 | 10.31480 | 123.98017 | 36 ft | 5 kts | 225° |
| 2026-05-03 21:07 | 10.31448 | 123.97984 | 36 ft | 7 kts | 225° |
| 2026-05-03 21:07 | 10.31411 | 123.97946 | 36 ft | 6 kts | 225° |
| 2026-05-03 21:08 | 10.31378 | 123.97912 | 36 ft | 6 kts | 226° |
| 2026-05-03 21:08 | 10.31347 | 123.97891 | 36 ft | 5 kts | 187° |
| 2026-05-03 21:08 | 10.31308 | 123.97913 | 36 ft | 7 kts | 134° |
| 2026-05-03 21:08 | 10.31269 | 123.97954 | 36 ft | 8 kts | 135° |
| 2026-05-03 21:09 | 10.31230 | 123.97984 | 36 ft | 6 kts | 164° |
| 2026-05-03 21:09 | 10.31186 | 123.97964 | 36 ft | 8 kts | 223° |
| 2026-05-03 21:09 | 10.31143 | 123.97922 | 36 ft | 9 kts | 225° |
| 2026-05-03 21:09 | 10.31093 | 123.97871 | 36 ft | 10 kts | 224° |
| 2026-05-03 21:10 | 10.31037 | 123.97815 | 36 ft | 11 kts | 225° |
| 2026-05-03 21:10 | 10.30976 | 123.97753 | 36 ft | 12 kts | 225° |
| 2026-05-03 21:10 | 10.30910 | 123.97686 | 36 ft | 13 kts | 225° |
| 2026-05-03 21:10 | 10.30841 | 123.97617 | 36 ft | 14 kts | 224° |
| 2026-05-03 21:11 | 10.30768 | 123.97543 | 36 ft | 15 kts | 225° |
| 2026-05-03 21:11 | 10.30692 | 123.97467 | 36 ft | 15 kts | 224° |
| 2026-05-03 21:11 | 10.30615 | 123.97390 | 36 ft | 16 kts | 225° |
| 2026-05-03 21:11 | 10.30534 | 123.97309 | 36 ft | 16 kts | 224° |
| 2026-05-03 21:12 | 10.30451 | 123.97227 | 36 ft | 16 kts | 225° |
| 2026-05-03 21:12 | 10.30392 | 123.97168 | 36 ft | 8 kts | 224° |
| 2026-05-03 21:12 | 10.30361 | 123.97152 | 36 ft | 3 kts | 165° |
| 2026-05-03 21:12 | 10.30338 | 123.97173 | 36 ft | 5 kts | 135° |
| 2026-05-03 21:13 | 10.30308 | 123.97203 | 36 ft | 5 kts | 135° |
| 2026-05-03 21:13 | 10.30300 | 123.97217 | 36 ft | 1 kts | 86° |
| 2026-05-03 21:13 | 10.30309 | 123.97227 | 36 ft | 2 kts | 42° |
| 2026-05-03 21:13 | 10.30356 | 123.97271 | 36 ft | 28 kts | 45° |
| 2026-05-03 21:14 | 10.30698 | 123.97614 | 36 ft | 107 kts | 44° |
| 2026-05-03 21:14 | 10.31393 | 123.98306 | 106 ft | 162 kts | 45° |
| 2026-05-03 21:14 | 10.32200 | 123.99126 | 775 ft | 164 kts | 47° |
| 2026-05-03 21:14 | 10.32981 | 123.99913 | 1636 ft | 159 kts | 48° |
| 2026-05-03 21:15 | 10.33753 | 124.00693 | 2299 ft | 162 kts | 49° |
| 2026-05-03 21:15 | 10.34681 | 124.01443 | 2727 ft | 184 kts | 27° |
| 2026-05-03 21:15 | 10.36045 | 124.01475 | 3132 ft | 216 kts | 346° |
| 2026-05-03 21:15 | 10.37329 | 124.00517 | 3461 ft | 251 kts | 307° |
| 2026-05-03 21:16 | 10.38161 | 123.98855 | 3988 ft | 272 kts | 294° |
| 2026-05-03 21:16 | 10.38883 | 123.97034 | 4578 ft | 287 kts | 292° |
| 2026-05-03 21:16 | 10.39610 | 123.95126 | 5417 ft | 292 kts | 292° |
| 2026-05-03 21:16 | 10.40340 | 123.93211 | 6318 ft | 294 kts | 292° |
| 2026-05-03 21:17 | 10.41077 | 123.91290 | 7185 ft | 297 kts | 292° |
| 2026-05-03 21:17 | 10.41573 | 123.90003 | 7758 ft | 298 kts | 292° |
| 2026-05-03 21:17 | 10.42586 | 123.87388 | 8882 ft | 302 kts | 293° |
| 2026-05-03 21:17 | 10.43357 | 123.85407 | 9698 ft | 304 kts | 293° |
| 2026-05-03 21:18 | 10.44137 | 123.83404 | 10475 ft | 307 kts | 293° |
| 2026-05-03 21:18 | 10.44928 | 123.81377 | 11189 ft | 312 kts | 293° |
| 2026-05-03 21:18 | 10.45741 | 123.79296 | 11586 ft | 328 kts | 293° |
| 2026-05-03 21:18 | 10.46609 | 123.77077 | 11900 ft | 346 kts | 293° |
| 2026-05-03 21:19 | 10.47510 | 123.74772 | 12187 ft | 363 kts | 293° |
| 2026-05-03 21:19 | 10.48465 | 123.72327 | 12459 ft | 379 kts | 293° |
| 2026-05-03 21:19 | 10.49460 | 123.69778 | 12705 ft | 394 kts | 293° |
| 2026-05-03 21:19 | 10.50482 | 123.67158 | 13007 ft | 406 kts | 293° |
| 2026-05-03 21:20 | 10.51533 | 123.64463 | 13565 ft | 409 kts | 293° |
| 2026-05-03 21:20 | 10.52577 | 123.61779 | 14109 ft | 412 kts | 293° |
| 2026-05-03 21:20 | 10.53627 | 123.59079 | 14619 ft | 415 kts | 293° |
| 2026-05-03 21:20 | 10.54695 | 123.56334 | 15109 ft | 419 kts | 293° |
| 2026-05-03 21:21 | 10.55764 | 123.53587 | 15576 ft | 422 kts | 293° |
| 2026-05-03 21:21 | 10.56846 | 123.50806 | 16039 ft | 426 kts | 293° |
| 2026-05-03 21:21 | 10.57937 | 123.48000 | 16485 ft | 429 kts | 293° |
| 2026-05-03 21:21 | 10.59037 | 123.45169 | 16929 ft | 432 kts | 292° |
| 2026-05-03 21:22 | 10.60152 | 123.42300 | 17359 ft | 436 kts | 292° |
| 2026-05-03 21:22 | 10.61269 | 123.39424 | 17788 ft | 439 kts | 292° |
| 2026-05-03 21:22 | 10.62388 | 123.36540 | 18216 ft | 441 kts | 292° |
| 2026-05-03 21:22 | 10.63506 | 123.33656 | 18642 ft | 443 kts | 292° |
| 2026-05-03 21:23 | 10.64642 | 123.30728 | 19069 ft | 445 kts | 292° |
| 2026-05-03 21:23 | 10.65785 | 123.27779 | 19482 ft | 447 kts | 292° |
| 2026-05-03 21:23 | 10.66924 | 123.24842 | 19867 ft | 449 kts | 292° |
| 2026-05-03 21:23 | 10.68132 | 123.21932 | 20252 ft | 451 kts | 295° |
| 2026-05-03 21:24 | 10.69473 | 123.19048 | 20642 ft | 453 kts | 296° |
| 2026-05-03 21:24 | 10.70847 | 123.16157 | 21003 ft | 455 kts | 296° |
| 2026-05-03 21:24 | 10.72235 | 123.13248 | 21373 ft | 457 kts | 296° |
| 2026-05-03 21:24 | 10.73606 | 123.10370 | 21733 ft | 459 kts | 296° |
| 2026-05-03 21:25 | 10.75017 | 123.07404 | 22101 ft | 461 kts | 296° |
| 2026-05-03 21:25 | 10.76525 | 123.04557 | 22437 ft | 463 kts | 303° |
| 2026-05-03 21:25 | 10.78484 | 123.01975 | 22777 ft | 465 kts | 313° |
| 2026-05-03 21:25 | 10.80881 | 122.99729 | 23135 ft | 466 kts | 323° |
| 2026-05-03 21:26 | 10.83527 | 122.97805 | 23498 ft | 467 kts | 326° |
| 2026-05-03 21:26 | 10.86208 | 122.95947 | 23804 ft | 470 kts | 327° |
| 2026-05-03 21:26 | 10.88964 | 122.94051 | 23868 ft | 479 kts | 327° |
| 2026-05-03 21:26 | 10.91740 | 122.92134 | 23869 ft | 488 kts | 326° |
| 2026-05-03 21:27 | 10.94577 | 122.90165 | 23873 ft | 495 kts | 326° |
| 2026-05-03 21:27 | 10.97442 | 122.88168 | 23882 ft | 500 kts | 326° |
| 2026-05-03 21:27 | 11.00292 | 122.86176 | 23883 ft | 505 kts | 326° |
| 2026-05-03 21:27 | 11.03223 | 122.84126 | 23882 ft | 507 kts | 326° |
| 2026-05-03 21:28 | 11.06129 | 122.82091 | 23883 ft | 507 kts | 326° |
| 2026-05-03 21:28 | 11.09031 | 122.80057 | 23883 ft | 507 kts | 326° |
| 2026-05-03 21:28 | 11.11969 | 122.77997 | 23885 ft | 508 kts | 326° |
| 2026-05-03 21:28 | 11.14866 | 122.75965 | 23884 ft | 508 kts | 326° |
| 2026-05-03 21:29 | 11.17765 | 122.73931 | 23885 ft | 508 kts | 326° |
| 2026-05-03 21:29 | 11.20686 | 122.71880 | 23887 ft | 509 kts | 326° |
| 2026-05-03 21:29 | 11.23601 | 122.69832 | 23885 ft | 509 kts | 326° |
| 2026-05-03 21:29 | 11.26514 | 122.67786 | 23886 ft | 508 kts | 326° |
| 2026-05-03 21:30 | 11.29449 | 122.65725 | 23887 ft | 508 kts | 326° |
| 2026-05-03 21:30 | 11.32338 | 122.63699 | 23887 ft | 507 kts | 326° |
| 2026-05-03 21:30 | 11.35242 | 122.61663 | 23888 ft | 507 kts | 326° |
| 2026-05-03 21:30 | 11.38143 | 122.59628 | 23864 ft | 499 kts | 326° |
| 2026-05-03 21:31 | 11.40973 | 122.57639 | 23627 ft | 484 kts | 326° |
| 2026-05-03 21:31 | 11.43737 | 122.55697 | 23359 ft | 479 kts | 326° |
| 2026-05-03 21:31 | 11.46457 | 122.53785 | 22929 ft | 475 kts | 326° |
| 2026-05-03 21:31 | 11.49172 | 122.51875 | 22377 ft | 472 kts | 326° |
| 2026-05-03 21:32 | 11.51854 | 122.49986 | 21759 ft | 467 kts | 326° |
| 2026-05-03 21:32 | 11.54520 | 122.48108 | 21098 ft | 462 kts | 326° |
| 2026-05-03 21:32 | 11.57136 | 122.46263 | 20411 ft | 458 kts | 326° |
| 2026-05-03 21:32 | 11.59747 | 122.44423 | 19723 ft | 454 kts | 326° |
| 2026-05-03 21:33 | 11.62320 | 122.42610 | 19037 ft | 451 kts | 327° |
| 2026-05-03 21:33 | 11.64907 | 122.40786 | 18332 ft | 447 kts | 327° |
| 2026-05-03 21:33 | 11.67346 | 122.38872 | 17626 ft | 446 kts | 321° |
| 2026-05-03 21:33 | 11.69582 | 122.36704 | 16930 ft | 444 kts | 315° |
| 2026-05-03 21:34 | 11.71607 | 122.34314 | 16243 ft | 441 kts | 310° |
| 2026-05-03 21:34 | 11.73508 | 122.31907 | 15580 ft | 436 kts | 310° |
| 2026-05-03 21:34 | 11.75380 | 122.29503 | 14915 ft | 432 kts | 310° |
| 2026-05-03 21:34 | 11.77242 | 122.27110 | 14252 ft | 428 kts | 310° |
| 2026-05-03 21:35 | 11.79094 | 122.24736 | 13592 ft | 423 kts | 310° |
| 2026-05-03 21:35 | 11.80905 | 122.22420 | 12943 ft | 419 kts | 310° |
| 2026-05-03 21:35 | 11.82724 | 122.20099 | 12302 ft | 414 kts | 310° |
| 2026-05-03 21:35 | 11.84498 | 122.17835 | 11851 ft | 403 kts | 310° |
| 2026-05-03 21:36 | 11.86226 | 122.15630 | 11484 ft | 391 kts | 310° |
| 2026-05-03 21:36 | 11.87892 | 122.13503 | 11224 ft | 377 kts | 310° |
| 2026-05-03 21:36 | 11.89483 | 122.11471 | 10970 ft | 364 kts | 310° |
| 2026-05-03 21:36 | 11.91051 | 122.09470 | 10731 ft | 351 kts | 310° |
| 2026-05-03 21:37 | 11.92557 | 122.07546 | 10516 ft | 338 kts | 310° |
| 2026-05-03 21:37 | 11.93971 | 122.05740 | 10331 ft | 313 kts | 310° |
| 2026-05-03 21:37 | 11.95295 | 122.04045 | 10173 ft | 298 kts | 310° |
| 2026-05-03 21:37 | 11.96559 | 122.02430 | 10038 ft | 289 kts | 310° |
| 2026-05-03 21:38 | 11.97815 | 122.00827 | 9724 ft | 288 kts | 311° |
| 2026-05-03 21:38 | 11.99071 | 121.99226 | 9363 ft | 288 kts | 311° |
| 2026-05-03 21:38 | 12.00314 | 121.97639 | 9014 ft | 288 kts | 311° |
| 2026-05-03 21:38 | 12.01579 | 121.96024 | 8661 ft | 287 kts | 311° |
| 2026-05-03 21:39 | 12.02801 | 121.94443 | 8311 ft | 287 kts | 307° |
| 2026-05-03 21:39 | 12.03569 | 121.92561 | 7926 ft | 291 kts | 276° |
| 2026-05-03 21:39 | 12.03292 | 121.90529 | 7567 ft | 292 kts | 246° |
| 2026-05-03 21:39 | 12.02218 | 121.88799 | 7236 ft | 289 kts | 232° |
| 2026-05-03 21:40 | 12.01016 | 121.87153 | 6898 ft | 288 kts | 232° |
| 2026-05-03 21:40 | 11.99838 | 121.85516 | 6568 ft | 287 kts | 233° |
| 2026-05-03 21:40 | 11.98666 | 121.83854 | 6240 ft | 286 kts | 233° |
| 2026-05-03 21:40 | 11.97510 | 121.82191 | 5918 ft | 285 kts | 234° |
| 2026-05-03 21:41 | 11.96379 | 121.80551 | 5599 ft | 280 kts | 234° |
| 2026-05-03 21:41 | 11.95283 | 121.78957 | 5291 ft | 267 kts | 233° |
| 2026-05-03 21:41 | 11.94245 | 121.77445 | 4997 ft | 254 kts | 233° |
| 2026-05-03 21:41 | 11.93258 | 121.76008 | 4715 ft | 242 kts | 233° |
| 2026-05-03 21:42 | 11.92272 | 121.74677 | 4450 ft | 228 kts | 220° |
| 2026-05-03 21:42 | 11.90973 | 121.73895 | 4230 ft | 207 kts | 191° |
| 2026-05-03 21:42 | 11.89587 | 121.73801 | 4138 ft | 196 kts | 165° |
| 2026-05-03 21:42 | 11.88320 | 121.74255 | 4090 ft | 190 kts | 147° |
| 2026-05-03 21:43 | 11.87155 | 121.74876 | 4034 ft | 189 kts | 145° |
| 2026-05-03 21:43 | 11.85976 | 121.75523 | 3986 ft | 189 kts | 146° |
| 2026-05-03 21:43 | 11.84818 | 121.76155 | 3880 ft | 189 kts | 143° |
| 2026-05-03 21:43 | 11.83963 | 121.77091 | 3614 ft | 175 kts | 107° |
| 2026-05-03 21:44 | 11.83904 | 121.78291 | 3388 ft | 172 kts | 75° |
| 2026-05-03 21:44 | 11.84411 | 121.79385 | 3206 ft | 173 kts | 64° |
| 2026-05-03 21:44 | 11.84969 | 121.80477 | 3013 ft | 172 kts | 64° |
| 2026-05-03 21:44 | 11.85516 | 121.81562 | 2822 ft | 172 kts | 65° |
| 2026-05-03 21:45 | 11.86063 | 121.82646 | 2623 ft | 171 kts | 65° |
| 2026-05-03 21:45 | 11.86598 | 121.83708 | 2420 ft | 164 kts | 65° |
| 2026-05-03 21:45 | 11.87103 | 121.84711 | 2218 ft | 151 kts | 65° |
| 2026-05-03 21:45 | 11.87558 | 121.85613 | 2043 ft | 135 kts | 65° |
| 2026-05-03 21:46 | 11.87973 | 121.86439 | 1865 ft | 129 kts | 66° |
| 2026-05-03 21:46 | 11.88384 | 121.87257 | 1699 ft | 128 kts | 66° |
| 2026-05-03 21:46 | 11.88782 | 121.88056 | 1538 ft | 127 kts | 66° |
| 2026-05-03 21:46 | 11.89188 | 121.88868 | 1356 ft | 126 kts | 66° |
| 2026-05-03 21:47 | 11.89590 | 121.89668 | 1203 ft | 126 kts | 66° |
| 2026-05-03 21:47 | 11.89986 | 121.90457 | 1042 ft | 126 kts | 66° |
| 2026-05-03 21:47 | 11.90385 | 121.91261 | 862 ft | 125 kts | 66° |
| 2026-05-03 21:47 | 11.90794 | 121.92051 | 683 ft | 125 kts | 64° |
| 2026-05-03 21:48 | 11.91195 | 121.92838 | 510 ft | 124 kts | 66° |
| 2026-05-03 21:48 | 11.91578 | 121.93631 | 348 ft | 125 kts | 65° |
| 2026-05-03 21:48 | 11.91970 | 121.94414 | 181 ft | 122 kts | 66° |
| 2026-05-03 21:48 | 11.92346 | 121.95175 | 41 ft | 119 kts | 66° |
| 2026-05-03 21:49 | 11.92640 | 121.95765 | 30 ft | 53 kts | 63° |
| 2026-05-03 21:49 | 11.92742 | 121.95969 | 30 ft | 21 kts | 63° |
| 2026-05-03 21:49 | 11.92793 | 121.96069 | 30 ft | 10 kts | 63° |
| 2026-05-03 21:49 | 11.92806 | 121.96104 | 30 ft | 2 kts | 108° |
| 2026-05-03 21:50 | 11.92787 | 121.96119 | 30 ft | 3 kts | 152° |
| 2026-05-03 21:50 | 11.92762 | 121.96133 | 30 ft | 4 kts | 153° |
| 2026-05-03 21:50 | 11.92735 | 121.96147 | 30 ft | 4 kts | 152° |
| 2026-05-03 21:50 | 11.92704 | 121.96163 | 30 ft | 5 kts | 153° |
| 2026-05-03 21:51 | 11.92671 | 121.96180 | 30 ft | 5 kts | 153° |
| 2026-05-03 21:51 | 11.92645 | 121.96194 | 30 ft | 2 kts | 145° |
| 2026-05-03 21:51 | 11.92638 | 121.96215 | 30 ft | 3 kts | 82° |
| 2026-05-03 21:51 | 11.92652 | 121.96245 | 30 ft | 5 kts | 63° |
| 2026-05-03 21:52 | 11.92670 | 121.96281 | 30 ft | 6 kts | 63° |
| 2026-05-03 21:52 | 11.92691 | 121.96324 | 30 ft | 7 kts | 63° |
| 2026-05-03 21:52 | 11.92716 | 121.96372 | 30 ft | 6 kts | 63° |
| 2026-05-03 21:52 | 11.92726 | 121.96397 | 30 ft | 1 kts | 88° |
| 2026-05-03 21:53 | 11.92718 | 121.96409 | 30 ft | 2 kts | 141° |
| 2026-05-03 21:53 | 11.92703 | 121.96418 | 30 ft | 2 kts | 151° |
| 2026-05-03 21:53 | 11.92687 | 121.96426 | 30 ft | 1 kts | 152° |
| 2026-05-03 21:53 | 11.92681 | 121.96429 | 30 ft | 0 kts | 153° |
| 2026-05-03 21:54 | 11.92680 | 121.96430 | 30 ft | 0 kts | 152° |